createdAt,value
2018-04-15T00:02:12.161Z,79.70
2018-04-15T00:05:14.618Z,79.70
2018-04-15T00:08:17.849Z,79.70
2018-04-15T00:11:20.301Z,79.60
2018-04-15T00:14:23.520Z,79.90
2018-04-15T00:17:25.967Z,79.80
2018-04-15T00:20:29.188Z,79.60
2018-04-15T00:23:31.646Z,79.60
2018-04-15T00:26:34.093Z,79.50
2018-04-15T00:29:37.309Z,79.80
2018-04-15T00:32:39.762Z,79.70
2018-04-15T00:35:42.218Z,79.90
2018-04-15T00:38:44.677Z,80.00
2018-04-15T00:41:47.139Z,80.20
2018-04-15T00:44:49.598Z,80.20
2018-04-15T00:47:52.041Z,80.40
2018-04-15T00:50:54.506Z,80.30
2018-04-15T00:54:08.861Z,80.00
2018-04-15T00:57:11.313Z,79.70
2018-04-15T01:00:13.773Z,79.50
2018-04-15T01:03:16.229Z,79.40
2018-04-15T01:06:19.449Z,79.30
2018-04-15T01:09:21.902Z,79.20
2018-04-15T01:12:25.122Z,78.80
2018-04-15T01:15:27.586Z,78.80
2018-04-15T01:18:30.041Z,78.80
2018-04-15T01:21:33.256Z,78.20
2018-04-15T01:24:35.717Z,78.00
2018-04-15T01:27:38.933Z,77.60
2018-04-15T01:30:41.387Z,77.50
2018-04-15T01:33:44.618Z,77.80
2018-04-15T01:36:47.070Z,77.70
2018-04-15T01:39:49.540Z,77.80
2018-04-15T01:42:52.745Z,78.10
2018-04-15T01:45:55.210Z,78.00
2018-04-15T01:48:58.438Z,78.70
2018-04-15T01:52:00.892Z,78.60
2018-04-15T01:55:03.346Z,79.00
2018-04-15T01:58:06.566Z,79.10
2018-04-15T02:01:09.025Z,79.00
2018-04-15T02:04:12.252Z,79.40
2018-04-15T02:07:14.703Z,79.30
2018-04-15T02:10:17.922Z,79.10
2018-04-15T02:13:20.373Z,79.10
2018-04-15T02:16:23.602Z,78.30
2018-04-15T02:19:26.062Z,78.30
2018-04-15T02:22:28.509Z,78.30
2018-04-15T02:25:31.742Z,78.10
2018-04-15T02:28:34.189Z,78.00
2018-04-15T02:31:37.414Z,77.80
2018-04-15T02:34:39.882Z,77.80
2018-04-15T02:37:42.325Z,77.80
2018-04-15T02:40:45.550Z,78.10
2018-04-15T02:43:47.997Z,78.00
2018-04-15T02:46:51.227Z,78.70
2018-04-15T02:49:53.685Z,78.70
2018-04-15T02:52:56.129Z,79.10
2018-04-15T02:55:58.590Z,79.30
2018-04-15T02:59:01.117Z,79.50
2018-04-15T03:02:03.500Z,79.70
2018-04-15T03:05:07.888Z,80.10
2018-04-15T03:08:10.330Z,80.00
2018-04-15T03:11:12.791Z,80.40
2018-04-15T03:14:15.248Z,80.40
2018-04-15T03:17:17.689Z,80.30
2018-04-15T03:20:20.145Z,80.40
2018-04-15T03:23:22.598Z,80.20
2018-04-15T03:26:25.050Z,80.60
2018-04-15T03:29:27.510Z,80.80
2018-04-15T03:32:30.726Z,81.00
2018-04-15T03:35:33.178Z,80.90
2018-04-15T03:38:36.394Z,80.50
2018-04-15T03:41:38.849Z,80.50
2018-04-15T03:44:42.074Z,81.20
2018-04-15T03:47:44.522Z,80.40
2018-04-15T03:50:47.754Z,80.50
2018-04-15T03:53:50.201Z,80.20
2018-04-15T03:56:52.666Z,80.20
2018-04-15T03:59:55.121Z,80.30
2018-04-15T04:02:57.574Z,80.50
2018-04-15T04:06:00.039Z,80.60
2018-04-15T04:09:02.489Z,80.20
2018-04-15T04:12:04.946Z,80.40
2018-04-15T04:15:07.402Z,80.70
2018-04-15T04:18:21.897Z,80.70
2018-04-15T04:21:36.976Z,80.20
2018-04-15T04:24:51.427Z,80.20
2018-04-15T04:27:54.637Z,80.30
2018-04-15T04:30:57.095Z,80.20
2018-04-15T04:34:00.321Z,80.10
2018-04-15T04:37:02.786Z,80.00
2018-04-15T04:40:05.282Z,80.50
2018-04-15T04:43:07.734Z,81.20
2018-04-15T04:46:10.196Z,81.60
2018-04-15T04:49:13.410Z,81.40
2018-04-15T04:52:15.877Z,81.40
2018-04-15T04:55:18.329Z,81.40
2018-04-15T04:58:21.552Z,82.30
2018-04-15T05:01:24.001Z,81.80
2018-04-15T05:04:27.218Z,83.00
2018-04-15T05:07:29.681Z,82.90
2018-04-15T05:10:32.901Z,83.00
2018-04-15T05:13:35.349Z,82.90
2018-04-15T05:16:38.585Z,82.30
2018-04-15T05:19:41.043Z,82.20
2018-04-15T05:22:43.490Z,81.80
2018-04-15T05:25:46.713Z,81.70
2018-04-15T05:28:49.169Z,81.50
2018-04-15T05:31:52.398Z,81.30
2018-04-15T05:34:54.856Z,81.30
2018-04-15T05:37:57.310Z,80.20
2018-04-15T05:41:00.534Z,80.30
2018-04-15T05:44:02.982Z,79.70
2018-04-15T05:47:05.458Z,79.10
2018-04-15T05:50:07.901Z,79.00
2018-04-15T05:53:10.361Z,78.70
2018-04-15T05:56:12.817Z,77.60
2018-04-15T05:59:15.265Z,76.90
2018-04-15T06:02:17.717Z,76.20
2018-04-15T06:05:20.192Z,76.80
2018-04-15T06:08:22.634Z,74.60
2018-04-15T06:11:25.102Z,76.70
2018-04-15T06:14:27.545Z,78.10
2018-04-15T06:17:30.005Z,78.80
2018-04-15T06:20:32.457Z,79.50
2018-04-15T06:23:34.918Z,80.00
2018-04-15T06:26:37.379Z,80.30
2018-04-15T06:29:39.820Z,80.10
2018-04-15T06:32:42.278Z,80.30
2018-04-15T06:35:44.742Z,80.80
2018-04-15T06:38:47.190Z,80.90
2018-04-15T06:41:56.049Z,80.20
2018-04-15T06:45:16.136Z,79.70
2018-04-15T06:48:18.566Z,79.50
2018-04-15T06:51:21.774Z,78.80
2018-04-15T06:54:24.224Z,78.70
2018-04-15T06:57:27.476Z,76.40
2018-04-15T07:00:29.925Z,76.40
2018-04-15T07:03:32.381Z,76.60
2018-04-15T07:06:34.846Z,75.60
2018-04-15T07:09:38.131Z,73.40
2018-04-15T07:12:40.528Z,73.40
2018-04-15T07:15:43.743Z,71.90
2018-04-15T07:18:46.210Z,71.90
2018-04-15T07:21:49.422Z,72.50
2018-04-15T07:24:51.885Z,72.40
2018-04-15T07:27:54.345Z,72.20
2018-04-15T07:30:57.567Z,72.80
2018-04-15T07:34:00.022Z,72.70
2018-04-15T07:37:03.246Z,73.20
2018-04-15T07:40:05.695Z,73.20
2018-04-15T07:43:08.150Z,72.60
2018-04-15T07:46:10.598Z,72.40
2018-04-15T07:49:13.058Z,72.50
2018-04-15T07:52:15.514Z,73.70
2018-04-15T07:55:17.966Z,72.80
2018-04-15T07:58:21.194Z,72.70
2018-04-15T08:01:23.653Z,72.60
2018-04-15T08:04:26.101Z,73.40
2018-04-15T08:07:28.564Z,73.90
2018-04-15T08:10:31.013Z,74.50
2018-04-15T08:13:33.480Z,75.30
2018-04-15T08:16:35.938Z,76.20
2018-04-15T08:19:38.381Z,77.10
2018-04-15T08:22:40.842Z,77.40
2018-04-15T08:25:43.294Z,77.60
2018-04-15T08:28:45.754Z,78.10
2018-04-15T08:31:48.217Z,77.50
2018-04-15T08:34:50.669Z,77.90
2018-04-15T08:37:53.125Z,77.70
2018-04-15T08:40:55.574Z,77.30
2018-04-15T08:43:58.034Z,77.10
2018-04-15T08:47:00.481Z,76.90
2018-04-15T08:50:03.697Z,77.40
2018-04-15T08:53:06.149Z,77.30
2018-04-15T08:56:09.370Z,77.60
2018-04-15T08:59:11.825Z,77.50
2018-04-15T09:02:15.050Z,77.60
2018-04-15T09:05:17.497Z,77.50
2018-04-15T09:08:20.722Z,76.20
2018-04-15T09:11:23.169Z,76.10
2018-04-15T09:14:26.394Z,76.20
2018-04-15T09:17:28.861Z,77.00
2018-04-15T09:20:31.310Z,75.70
2018-04-15T09:23:34.533Z,74.70
2018-04-15T09:26:36.986Z,74.70
2018-04-15T09:29:40.209Z,74.70
2018-04-15T09:32:42.661Z,74.60
2018-04-15T09:35:45.873Z,74.20
2018-04-15T09:38:48.336Z,74.10
2018-04-15T09:41:51.558Z,73.70
2018-04-15T09:44:54.014Z,73.60
2018-04-15T09:47:56.469Z,71.40
2018-04-15T09:50:58.917Z,72.00
2018-04-15T09:54:12.038Z,71.60
2018-04-15T09:57:14.493Z,71.10
2018-04-15T10:00:18.766Z,71.40
2018-04-15T10:03:21.218Z,70.20
2018-04-15T10:06:23.673Z,70.50
2018-04-15T10:09:26.125Z,69.70
2018-04-15T10:12:28.586Z,68.00
2018-04-15T10:15:31.802Z,68.80
2018-04-15T10:18:34.270Z,68.70
2018-04-15T10:21:36.713Z,67.80
2018-04-15T10:24:39.170Z,67.10
2018-04-15T10:27:41.629Z,66.90
2018-04-15T10:30:45.021Z,66.60
2018-04-15T10:33:47.477Z,66.00
2018-04-15T10:36:49.928Z,63.00
2018-04-15T10:39:53.150Z,63.20
2018-04-15T10:42:55.605Z,63.10
2018-04-15T10:45:58.058Z,60.00
2018-04-15T10:49:00.521Z,61.10
2018-04-15T10:52:02.977Z,61.80
2018-04-15T10:55:05.450Z,61.10
2018-04-15T10:58:07.905Z,62.70
2018-04-15T11:01:10.357Z,62.50
2018-04-15T11:04:12.814Z,63.40
2018-04-15T11:07:15.258Z,60.90
2018-04-15T11:10:17.714Z,59.60
2018-04-15T11:13:20.190Z,60.80
2018-04-15T11:16:22.633Z,60.50
2018-04-15T11:19:25.090Z,62.40
2018-04-15T11:22:27.541Z,60.80
2018-04-15T11:25:29.989Z,62.00
2018-04-15T11:28:32.450Z,62.00
2018-04-15T11:31:35.667Z,61.60
2018-04-15T11:34:38.125Z,61.40
2018-04-15T11:37:41.337Z,60.20
2018-04-15T11:40:43.789Z,60.30
2018-04-15T11:43:47.019Z,58.80
2018-04-15T11:46:49.461Z,58.70
2018-04-15T11:49:51.918Z,58.80
2018-04-15T11:52:54.370Z,59.20
2018-04-15T11:55:56.825Z,59.20
2018-04-15T11:58:59.287Z,60.30
2018-04-15T12:02:01.733Z,59.10
2018-04-15T12:05:04.191Z,60.30
2018-04-15T12:08:06.646Z,62.70
2018-04-15T12:11:09.098Z,63.30
2018-04-15T12:14:11.561Z,62.50
2018-04-15T12:17:14.822Z,62.90
2018-04-15T12:20:17.226Z,62.80
2018-04-15T12:23:20.450Z,63.60
2018-04-15T12:26:22.900Z,63.50
2018-04-15T12:29:26.122Z,62.50
2018-04-15T12:32:28.583Z,62.40
2018-04-15T12:35:31.037Z,63.10
2018-04-15T12:38:34.264Z,62.00
2018-04-15T12:41:36.710Z,62.00
2018-04-15T12:44:39.933Z,62.50
2018-04-15T12:47:42.384Z,62.50
2018-04-15T12:50:45.606Z,60.70
2018-04-15T12:53:48.066Z,60.60
2018-04-15T12:56:50.522Z,59.30
2018-04-15T12:59:52.974Z,57.70
2018-04-15T13:02:56.966Z,59.00
2018-04-15T13:05:59.416Z,58.90
2018-04-15T13:09:01.869Z,58.10
2018-04-15T13:12:05.090Z,55.90
2018-04-15T13:15:07.540Z,55.80
2018-04-15T13:18:10.766Z,56.00
2018-04-15T13:21:13.212Z,56.00
2018-04-15T13:24:16.437Z,55.00
2018-04-15T13:27:18.881Z,55.00
2018-04-15T13:30:22.111Z,53.70
2018-04-15T13:33:24.566Z,53.60
2018-04-15T13:36:27.014Z,54.40
2018-04-15T13:39:29.470Z,54.60
2018-04-15T13:42:31.924Z,53.40
2018-04-15T13:45:34.377Z,52.80
2018-04-15T13:48:36.838Z,52.50
2018-04-15T13:51:40.042Z,53.80
2018-04-15T13:54:42.494Z,53.80
2018-04-15T13:57:44.937Z,52.10
2018-04-15T14:00:47.390Z,51.50
2018-04-15T14:03:49.837Z,50.00
2018-04-15T14:06:53.066Z,50.30
2018-04-15T14:09:55.523Z,50.20
2018-04-15T14:12:57.965Z,50.40
2018-04-15T14:16:00.415Z,50.50
2018-04-15T14:19:02.866Z,49.80
2018-04-15T14:22:05.305Z,49.30
2018-04-15T14:25:08.528Z,49.40
2018-04-15T14:28:10.970Z,49.30
2018-04-15T14:31:13.419Z,49.20
2018-04-15T14:34:15.870Z,49.60
2018-04-15T14:37:18.325Z,48.60
2018-04-15T14:40:20.780Z,48.40
2018-04-15T14:43:23.214Z,48.80
2018-04-15T14:46:25.670Z,48.90
2018-04-15T14:49:28.121Z,48.00
2018-04-15T14:52:31.333Z,50.10
2018-04-15T14:55:33.787Z,50.00
2018-04-15T14:58:37.011Z,48.90
2018-04-15T15:01:39.450Z,48.80
2018-04-15T15:04:42.665Z,48.60
2018-04-15T15:07:45.116Z,48.40
2018-04-15T15:10:47.561Z,48.80
2018-04-15T15:13:50.014Z,48.30
2018-04-15T15:16:52.450Z,48.10
2018-04-15T15:19:54.900Z,48.40
2018-04-15T15:22:57.337Z,48.70
2018-04-15T15:25:59.796Z,49.60
2018-04-15T15:29:02.237Z,49.70
2018-04-15T15:32:04.682Z,49.30
2018-04-15T15:35:07.130Z,49.30
2018-04-15T15:38:12.815Z,49.90
2018-04-15T15:41:16.102Z,50.40
2018-04-15T15:44:18.553Z,50.30
2018-04-15T15:47:22.450Z,50.30
2018-04-15T15:50:24.842Z,50.60
2018-04-15T15:53:27.291Z,50.90
2018-04-15T15:56:29.734Z,50.80
2018-04-15T15:59:32.192Z,50.80
2018-04-15T16:02:34.634Z,51.10
2018-04-15T16:05:37.854Z,51.10
2018-04-15T16:08:40.870Z,50.90
2018-04-15T16:11:43.429Z,51.40
2018-04-15T16:14:46.034Z,51.00
2018-04-15T16:17:48.615Z,51.50
2018-04-15T16:20:51.861Z,52.40
2018-04-15T16:23:54.314Z,52.30
2018-04-15T16:26:56.761Z,51.70
2018-04-15T16:29:59.217Z,50.70
2018-04-15T16:33:01.657Z,50.70
2018-04-15T16:36:04.978Z,50.40
2018-04-15T16:39:07.563Z,50.30
2018-04-15T16:42:10.102Z,50.40
2018-04-15T16:45:12.622Z,47.70
2018-04-15T16:48:18.261Z,48.10
2018-04-15T16:51:22.537Z,48.50
2018-04-15T16:54:24.990Z,48.50
2018-04-15T16:57:27.568Z,48.20
2018-04-15T17:00:30.027Z,48.40
2018-04-15T17:03:32.457Z,49.30
2018-04-15T17:06:35.694Z,50.90
2018-04-15T17:09:38.149Z,50.40
2018-04-15T17:12:40.751Z,51.10
2018-04-15T17:15:43.193Z,51.00
2018-04-15T17:18:46.403Z,52.10
2018-04-15T17:21:48.858Z,51.40
2018-04-15T17:24:52.106Z,52.60
2018-04-15T17:27:54.562Z,52.50
2018-04-15T17:30:57.019Z,53.20
2018-04-15T17:34:00.234Z,53.20
2018-04-15T17:37:02.689Z,53.20
2018-04-15T17:40:05.913Z,53.30
2018-04-15T17:43:08.362Z,53.20
2018-04-15T17:46:11.612Z,53.40
2018-04-15T17:49:14.020Z,53.40
2018-04-15T17:52:17.244Z,54.00
2018-04-15T17:55:19.698Z,53.90
2018-04-15T17:58:22.909Z,54.50
2018-04-15T18:01:25.373Z,54.40
2018-04-15T18:04:28.594Z,55.70
2018-04-15T18:07:31.054Z,55.60
2018-04-15T18:10:33.518Z,56.10
2018-04-15T18:13:35.955Z,56.50
2018-04-15T18:16:38.413Z,56.80
2018-04-15T18:19:40.866Z,57.20
2018-04-15T18:22:43.309Z,57.10
2018-04-15T18:25:46.534Z,58.10
2018-04-15T18:28:48.985Z,57.50
2018-04-15T18:31:52.205Z,57.90
2018-04-15T18:34:54.661Z,57.80
2018-04-15T18:37:57.878Z,57.90
2018-04-15T18:41:00.329Z,57.80
2018-04-15T18:44:03.550Z,58.40
2018-04-15T18:47:06.010Z,58.50
2018-04-15T18:50:09.245Z,59.10
2018-04-15T18:53:11.691Z,59.10
2018-04-15T18:56:14.145Z,59.40
2018-04-15T18:59:17.362Z,60.50
2018-04-15T19:02:19.818Z,60.40
2018-04-15T19:05:23.110Z,61.00
2018-04-15T19:08:25.494Z,61.10
2018-04-15T19:11:28.714Z,62.20
2018-04-15T19:14:31.159Z,62.10
2018-04-15T19:17:34.385Z,64.50
2018-04-15T19:20:36.859Z,64.40
2018-04-15T19:23:39.305Z,65.40
2018-04-15T19:26:42.543Z,66.50
2018-04-15T19:29:44.993Z,66.40
2018-04-15T19:32:47.451Z,66.30
2018-04-15T19:35:49.905Z,66.20
2018-04-15T19:38:52.358Z,66.80
2018-04-15T19:41:54.874Z,67.80
2018-04-15T19:44:57.261Z,68.30
2018-04-15T19:48:00.486Z,69.30
2018-04-15T19:51:02.945Z,69.30
2018-04-15T19:54:06.158Z,71.10
2018-04-15T19:57:08.613Z,71.00
2018-04-15T20:00:11.853Z,72.10
2018-04-15T20:03:14.306Z,72.10
2018-04-15T20:06:16.765Z,72.70
2018-04-15T20:09:19.217Z,73.10
2018-04-15T20:12:21.673Z,73.50
2018-04-15T20:15:24.129Z,74.70
2018-04-15T20:18:26.590Z,74.20
2018-04-15T20:21:29.046Z,74.60
2018-04-15T20:24:32.265Z,75.40
2018-04-15T20:27:34.725Z,75.40
2018-04-15T20:30:37.182Z,75.40
2018-04-15T20:33:39.637Z,75.70
2018-04-15T20:36:42.099Z,75.60
2018-04-15T20:39:44.545Z,75.60
2018-04-15T20:42:46.997Z,75.90
2018-04-15T20:45:50.218Z,76.40
2018-04-15T20:48:52.673Z,76.40
2018-04-15T20:51:55.133Z,76.80
2018-04-15T20:54:57.573Z,76.90
2018-04-15T20:58:00.026Z,77.20
2018-04-15T21:01:02.483Z,77.10
2018-04-15T21:04:04.926Z,77.20
2018-04-15T21:07:07.386Z,77.50
2018-04-15T21:10:09.829Z,77.50
2018-04-15T21:13:12.281Z,77.50
2018-04-15T21:16:14.749Z,78.00
2018-04-15T21:19:17.964Z,78.10
2018-04-15T21:22:20.417Z,78.00
2018-04-15T21:25:23.638Z,77.80
2018-04-15T21:28:26.095Z,78.50
2018-04-15T21:31:29.331Z,77.50
2018-04-15T21:34:31.791Z,77.40
2018-04-15T21:37:34.238Z,77.70
2018-04-15T21:40:37.454Z,78.60
2018-04-15T21:43:39.913Z,78.50
2018-04-15T21:46:43.133Z,78.40
2018-04-15T21:49:45.585Z,78.30
2018-04-15T21:52:48.061Z,78.80
2018-04-15T21:55:50.498Z,78.60
2018-04-15T21:58:52.949Z,78.60
2018-04-15T22:01:55.414Z,78.30
2018-04-15T22:04:57.861Z,78.40
2018-04-15T22:08:01.089Z,78.90
2018-04-15T22:11:03.537Z,78.80
2018-04-15T22:14:06.753Z,77.70
2018-04-15T22:17:09.210Z,77.60
2018-04-15T22:20:12.430Z,77.40
2018-04-15T22:23:14.879Z,77.30
2018-04-15T22:26:17.329Z,77.30
2018-04-15T22:29:19.778Z,77.20
2018-04-15T22:32:22.234Z,77.20
2018-04-15T22:35:24.690Z,77.50
2018-04-15T22:38:27.913Z,78.50
2018-04-15T22:41:30.372Z,78.50
2018-04-15T22:44:32.821Z,78.20
2018-04-15T22:47:35.275Z,78.20
2018-04-15T22:50:37.717Z,78.10
2018-04-15T22:53:40.178Z,78.00
2018-04-15T22:56:43.420Z,78.30
2018-04-15T22:59:45.858Z,77.80
2018-04-15T23:02:48.313Z,77.70
2018-04-15T23:05:51.534Z,78.00
2018-04-15T23:08:53.993Z,77.90
2018-04-15T23:11:56.449Z,78.10
2018-04-15T23:14:58.901Z,78.30
2018-04-15T23:18:01.366Z,78.70
2018-04-15T23:21:03.818Z,79.00
2018-04-15T23:24:06.287Z,78.80
2018-04-15T23:27:08.742Z,78.70
2018-04-15T23:30:11.190Z,79.00
2018-04-15T23:33:13.650Z,79.00
2018-04-15T23:36:16.106Z,79.00
2018-04-15T23:39:18.566Z,79.20
2018-04-15T23:42:21.026Z,79.20
2018-04-15T23:45:24.246Z,79.10
2018-04-15T23:48:26.701Z,79.00
2018-04-15T23:51:29.935Z,79.30
2018-04-15T23:54:32.389Z,79.10
2018-04-15T23:57:34.846Z,79.10
